Time;durP1;ratioP1;P1;durP2;ratioP2;P2;SDS_P1;SDS_P2;PMS_P1;PMS_P2;Temp;Humidity;BMP_temperature;BMP_pressure;BME280_temperature;BME280_humidity;BME280_pressure;Samples;Min_cycle;Max_cycle;Signal;HPM_P1;HPM_P2
2021/04/04 00:02:08;;;;;;;4.53;2.78;;;;;;;;;;5055029;28;20024;-65
2021/04/04 00:04:33;;;;;;;4.13;2.70;;;;;;;;;;5054202;28;20013;-66
2021/04/04 00:06:59;;;;;;;4.78;3.25;;;;;;;;;;5036989;28;20024;-66
2021/04/04 00:09:25;;;;;;;3.97;2.47;;;;;;;;;;5037137;28;20016;-66
2021/04/04 00:11:50;;;;;;;4.15;2.90;;;;;;;;;;5054842;28;20478;-65
2021/04/04 00:14:16;;;;;;;3.60;2.53;;;;;;;;;;5036841;28;20063;-65
2021/04/04 00:16:41;;;;;;;4.55;2.80;;;;;;;;;;5036735;28;20380;-66
2021/04/04 00:19:07;;;;;;;4.43;3.53;;;;;;;;;;5054593;28;20092;-66
2021/04/04 00:21:33;;;;;;;5.57;2.85;;;;;;;;;;5054646;28;20056;-65
2021/04/04 00:23:58;;;;;;;5.05;3.30;;;;;;;;;;5020222;28;20454;-65
2021/04/04 00:26:24;;;;;;;4.60;2.97;;;;;;;;;;5036933;28;20013;-66
2021/04/04 00:28:49;;;;;;;6.10;3.33;;;;;;;;;;5019522;28;20056;-66
2021/04/04 00:31:14;;;;;;;4.57;3.33;;;;;;;;;;5054414;28;20529;-65
2021/04/04 00:33:40;;;;;;;4.53;2.80;;;;;;;;;;5054518;28;20017;-66
2021/04/04 00:36:05;;;;;;;4.50;3.42;;;;;;;;;;5035927;28;20071;-66
2021/04/04 00:38:31;;;;;;;5.10;3.00;;;;;;;;;;5036333;28;20016;-66
2021/04/04 00:40:56;;;;;;;4.35;3.20;;;;;;;;;;5036554;28;20018;-66
2021/04/04 00:43:22;;;;;;;4.38;3.00;;;;;;;;;;5019775;28;20021;-66
2021/04/04 00:45:47;;;;;;;4.70;3.00;;;;;;;;;;5054174;28;20044;-65
2021/04/04 00:48:12;;;;;;;4.38;3.30;;;;;;;;;;5054191;28;20013;-66
2021/04/04 00:50:39;;;;;;;6.03;3.10;;;;;;;;;;5036091;28;20033;-66
2021/04/04 00:53:04;;;;;;;6.03;4.15;;;;;;;;;;5057995;28;20053;-65
2021/04/04 00:55:30;;;;;;;6.25;4.03;;;;;;;;;;5036831;28;20432;-65
2021/04/04 00:57:56;;;;;;;6.63;4.43;;;;;;;;;;5019354;28;20049;-66
2021/04/04 01:00:22;;;;;;;6.43;4.22;;;;;;;;;;5036123;28;20371;-65
2021/04/04 01:02:49;;;;;;;6.95;4.82;;;;;;;;;;5019209;28;20017;-65
2021/04/04 01:05:16;;;;;;;7.70;4.22;;;;;;;;;;5035615;28;20074;-66
2021/04/04 01:07:46;;;;;;;5.93;4.38;;;;;;;;;;5036296;28;20450;-66
2021/04/04 01:10:12;;;;;;;5.40;4.07;;;;;;;;;;5036451;28;20029;-66
2021/04/04 01:12:39;;;;;;;6.90;4.15;;;;;;;;;;5053503;28;20402;-66
2021/04/04 01:15:07;;;;;;;4.93;3.58;;;;;;;;;;5053398;28;20487;-66
2021/04/04 01:17:33;;;;;;;6.85;4.32;;;;;;;;;;5053761;28;20133;-66
2021/04/04 01:20:08;;;;;;;6.70;4.30;;;;;;;;;;5035732;28;20457;-66
2021/04/04 01:22:46;;;;;;;5.55;3.42;;;;;;;;;;5053402;28;20504;-65
2021/04/04 01:25:17;;;;;;;9.45;4.47;;;;;;;;;;5053263;28;20062;-66
2021/04/04 01:27:52;;;;;;;7.10;4.40;;;;;;;;;;5061740;22;20053;-66
2021/04/04 01:30:19;;;;;;;7.82;4.22;;;;;;;;;;5053249;28;20041;-66
2021/04/04 01:32:46;;;;;;;5.95;4.10;;;;;;;;;;5053160;28;20017;-66
2021/04/04 01:35:12;;;;;;;8.57;3.95;;;;;;;;;;5052662;28;20563;-66
2021/04/04 01:37:39;;;;;;;7.55;4.50;;;;;;;;;;5053049;28;20500;-66
2021/04/04 01:40:07;;;;;;;7.20;4.75;;;;;;;;;;5035212;28;20020;-66
2021/04/04 01:42:34;;;;;;;8.48;4.40;;;;;;;;;;5035377;28;20017;-65
2021/04/04 01:45:00;;;;;;;7.57;4.72;;;;;;;;;;5053106;28;20005;-66
2021/04/04 01:47:25;;;;;;;7.40;4.82;;;;;;;;;;5035414;28;20044;-66
2021/04/04 01:49:52;;;;;;;9.43;4.80;;;;;;;;;;5035124;28;20448;-66
2021/04/04 01:52:17;;;;;;;6.60;4.20;;;;;;;;;;5052807;28;20028;-65
2021/04/04 01:54:44;;;;;;;10.70;5.03;;;;;;;;;;5035031;28;20408;-66
2021/04/04 01:57:10;;;;;;;8.40;4.95;;;;;;;;;;5034823;28;20481;-66
2021/04/04 01:59:35;;;;;;;10.80;5.93;;;;;;;;;;5053066;28;20103;-65
2021/04/04 02:02:01;;;;;;;8.52;5.07;;;;;;;;;;5052750;28;20081;-66
2021/04/04 02:04:26;;;;;;;12.95;5.85;;;;;;;;;;5034416;28;20013;-66
2021/04/04 02:06:53;;;;;;;11.80;7.00;;;;;;;;;;5034069;28;20013;-66
2021/04/04 02:09:19;;;;;;;12.50;6.70;;;;;;;;;;5034625;28;20130;-66
2021/04/04 02:11:44;;;;;;;10.05;5.57;;;;;;;;;;5052766;28;20048;-65
2021/04/04 02:14:13;;;;;;;11.93;7.35;;;;;;;;;;5018360;28;20025;-66
2021/04/04 02:16:40;;;;;;;10.98;6.15;;;;;;;;;;5034663;28;20021;-65
2021/04/04 02:19:07;;;;;;;11.77;6.63;;;;;;;;;;5018097;28;20067;-66
2021/04/04 02:21:34;;;;;;;12.20;6.75;;;;;;;;;;5052538;28;20119;-66
2021/04/04 02:24:01;;;;;;;9.52;6.15;;;;;;;;;;5034393;28;20021;-65
2021/04/04 02:26:28;;;;;;;9.98;5.68;;;;;;;;;;5052649;28;20013;-65
2021/04/04 02:28:54;;;;;;;9.98;5.82;;;;;;;;;;5052026;28;20088;-66
2021/04/04 02:31:20;;;;;;;10.30;6.38;;;;;;;;;;5052545;28;20056;-66
2021/04/04 02:33:49;;;;;;;9.90;5.65;;;;;;;;;;5052384;28;20033;-66
2021/04/04 02:36:15;;;;;;;11.00;5.55;;;;;;;;;;5033803;28;20017;-66
2021/04/04 02:38:43;;;;;;;9.43;6.22;;;;;;;;;;5052220;28;20031;-66
2021/04/04 02:41:10;;;;;;;9.68;6.28;;;;;;;;;;5052397;28;20496;-66
2021/04/04 02:43:36;;;;;;;10.43;5.78;;;;;;;;;;5034582;28;20028;-66
2021/04/04 02:46:04;;;;;;;11.10;6.32;;;;;;;;;;5034282;28;20024;-66
2021/04/04 02:48:32;;;;;;;12.32;6.60;;;;;;;;;;5052135;28;20036;-65
2021/04/04 02:50:59;;;;;;;11.52;6.82;;;;;;;;;;5052127;28;20021;-66
2021/04/04 02:53:24;;;;;;;13.70;7.13;;;;;;;;;;5052378;28;20044;-65
2021/04/04 02:55:50;;;;;;;12.13;6.15;;;;;;;;;;5017961;28;20049;-66
2021/04/04 02:58:18;;;;;;;10.82;6.07;;;;;;;;;;5034602;28;20017;-66
2021/04/04 03:00:43;;;;;;;11.48;7.07;;;;;;;;;;5022167;28;20016;-66
2021/04/04 03:03:10;;;;;;;14.35;6.85;;;;;;;;;;5035595;28;20021;-65
2021/04/04 03:05:36;;;;;;;12.63;7.45;;;;;;;;;;5051495;28;20469;-66
2021/04/04 03:08:02;;;;;;;12.60;6.72;;;;;;;;;;5052153;28;20032;-66
2021/04/04 03:10:28;;;;;;;12.52;6.68;;;;;;;;;;5017850;28;20033;-65
2021/04/04 03:12:54;;;;;;;10.55;6.60;;;;;;;;;;5034161;28;20017;-66
2021/04/04 03:15:20;;;;;;;12.07;7.07;;;;;;;;;;5034063;28;20021;-65
2021/04/04 03:17:46;;;;;;;14.13;7.20;;;;;;;;;;5034435;28;20024;-65
2021/04/04 03:20:13;;;;;;;12.38;6.85;;;;;;;;;;5038041;28;20021;-66
2021/04/04 03:22:40;;;;;;;12.02;6.80;;;;;;;;;;5037713;28;20071;-66
2021/04/04 03:25:06;;;;;;;13.00;7.35;;;;;;;;;;5037999;28;20017;-66
2021/04/04 03:27:32;;;;;;;13.07;7.13;;;;;;;;;;5055540;28;20065;-66
2021/04/04 03:29:58;;;;;;;11.20;6.93;;;;;;;;;;5037713;28;20025;-66
2021/04/04 03:32:24;;;;;;;11.82;6.63;;;;;;;;;;5037936;28;20539;-66
2021/04/04 03:34:51;;;;;;;14.20;7.07;;;;;;;;;;5036789;28;20028;-66
2021/04/04 03:37:16;;;;;;;17.02;6.40;;;;;;;;;;5055610;28;20025;-66
2021/04/04 03:39:42;;;;;;;14.20;8.07;;;;;;;;;;5021159;28;20506;-66
2021/04/04 03:42:09;;;;;;;14.90;7.85;;;;;;;;;;5021084;28;20013;-65
2021/04/04 03:44:38;;;;;;;14.13;8.48;;;;;;;;;;5055209;28;20051;-65
2021/04/04 03:47:03;;;;;;;12.55;7.63;;;;;;;;;;5037424;28;20021;-66
2021/04/04 03:49:30;;;;;;;14.85;7.70;;;;;;;;;;5037354;28;20138;-66
2021/04/04 03:51:56;;;;;;;13.63;7.32;;;;;;;;;;5055320;28;20074;-66
2021/04/04 03:54:22;;;;;;;11.77;7.25;;;;;;;;;;5055377;28;20017;-65
2021/04/04 03:56:49;;;;;;;12.77;7.15;;;;;;;;;;5037228;28;20021;-65
2021/04/04 03:59:15;;;;;;;11.25;7.00;;;;;;;;;;5037401;28;20021;-66
2021/04/04 04:01:43;;;;;;;12.57;6.82;;;;;;;;;;5020897;28;20027;-66
2021/04/04 04:04:10;;;;;;;11.73;6.80;;;;;;;;;;5037216;28;20025;-66
2021/04/04 04:06:37;;;;;;;16.23;8.25;;;;;;;;;;5036517;28;20028;-65
2021/04/04 04:09:07;;;;;;;11.88;7.68;;;;;;;;;;5054916;28;20084;-66
2021/04/04 04:11:35;;;;;;;11.05;7.22;;;;;;;;;;5054961;28;20489;-66
2021/04/04 04:14:01;;;;;;;14.68;8.18;;;;;;;;;;5054907;28;20031;-66
2021/04/04 04:16:27;;;;;;;13.73;8.27;;;;;;;;;;5037012;28;20381;-66
2021/04/04 04:18:52;;;;;;;14.65;8.40;;;;;;;;;;5054490;28;20036;-66
2021/04/04 04:21:18;;;;;;;13.10;8.02;;;;;;;;;;5020373;28;20473;-66
2021/04/04 04:23:43;;;;;;;17.80;8.77;;;;;;;;;;5036869;28;20104;-66
2021/04/04 04:26:12;;;;;;;15.60;8.40;;;;;;;;;;5054625;28;20398;-66
2021/04/04 04:28:39;;;;;;;13.32;8.27;;;;;;;;;;5070736;22;20049;-66
2021/04/04 04:31:07;;;;;;;12.57;7.47;;;;;;;;;;5053485;28;20028;-66
2021/04/04 04:33:33;;;;;;;13.13;8.10;;;;;;;;;;5054396;28;20095;-66
2021/04/04 04:35:59;;;;;;;16.15;8.75;;;;;;;;;;5035852;28;20068;-66
2021/04/04 04:38:24;;;;;;;14.98;8.32;;;;;;;;;;5054452;28;20480;-66
2021/04/04 04:40:50;;;;;;;13.15;8.13;;;;;;;;;;5019791;28;20029;-66
2021/04/04 04:43:17;;;;;;;15.45;8.55;;;;;;;;;;5036437;28;20462;-66
2021/04/04 04:45:43;;;;;;;15.98;8.82;;;;;;;;;;5036582;28;20032;-66
2021/04/04 04:48:09;;;;;;;17.10;9.65;;;;;;;;;;5019654;28;20021;-66
2021/04/04 04:50:35;;;;;;;18.00;9.65;;;;;;;;;;5036273;28;20040;-66
2021/04/04 04:53:00;;;;;;;21.05;10.45;;;;;;;;;;5019722;28;20485;-66
2021/04/04 04:55:26;;;;;;;17.73;9.63;;;;;;;;;;5036076;28;20035;-66
2021/04/04 04:57:53;;;;;;;15.20;8.85;;;;;;;;;;5036047;28;20021;-66
2021/04/04 05:00:19;;;;;;;17.95;9.50;;;;;;;;;;5036056;28;20021;-65
2021/04/04 05:02:45;;;;;;;17.50;8.98;;;;;;;;;;5053449;28;20013;-66
2021/04/04 05:05:11;;;;;;;16.08;9.18;;;;;;;;;;5035428;28;20394;-66
2021/04/04 05:07:37;;;;;;;17.33;9.35;;;;;;;;;;5057187;28;20017;-66
2021/04/04 05:10:04;;;;;;;19.15;9.27;;;;;;;;;;5056437;28;20033;-65
2021/04/04 05:12:31;;;;;;;13.90;8.60;;;;;;;;;;5035565;28;20020;-65
2021/04/04 05:15:00;;;;;;;13.65;8.98;;;;;;;;;;5035726;28;20025;-65
2021/04/04 05:17:25;;;;;;;13.30;8.77;;;;;;;;;;5053688;28;20013;-66
2021/04/04 05:19:50;;;;;;;13.85;8.48;;;;;;;;;;5035697;28;20014;-66
2021/04/04 05:22:16;;;;;;;13.40;7.93;;;;;;;;;;5035798;28;20083;-66
2021/04/04 05:24:42;;;;;;;11.95;7.82;;;;;;;;;;5053278;28;20369;-66
2021/04/04 05:52:28;;;;;;;11.38;6.32;;;;;;;;;;5666245;22;20407;-67
2021/04/04 05:55:03;;;;;;;11.27;5.78;;;;;;;;;;5013048;28;20029;-66
2021/04/04 05:57:33;;;;;;;8.73;5.75;;;;;;;;;;5013472;28;20049;-66
2021/04/04 06:00:01;;;;;;;9.57;5.60;;;;;;;;;;5013266;28;20026;-66
2021/04/04 06:02:28;;;;;;;8.80;5.53;;;;;;;;;;5013084;28;20022;-66
2021/04/04 06:04:54;;;;;;;7.78;4.82;;;;;;;;;;5011087;28;20028;-66
2021/04/04 06:07:29;;;;;;;7.10;4.78;;;;;;;;;;5012041;28;20049;-66
2021/04/04 06:09:55;;;;;;;7.70;4.60;;;;;;;;;;5013235;28;20453;-66
2021/04/04 06:12:41;;;;;;;7.80;4.45;;;;;;;;;;5012261;28;20054;-66
2021/04/04 06:15:16;;;;;;;7.07;4.55;;;;;;;;;;5012018;28;20032;-66
2021/04/04 06:17:46;;;;;;;6.88;3.90;;;;;;;;;;5013149;28;20097;-66
2021/04/04 06:20:15;;;;;;;6.63;4.10;;;;;;;;;;5012973;28;20046;-66
2021/04/04 06:22:50;;;;;;;6.88;4.25;;;;;;;;;;5012823;28;20021;-67
2021/04/04 06:25:15;;;;;;;3.67;2.80;;;;;;;;;;5012948;28;20033;-66
2021/04/04 06:30:21;;;;;;;4.18;2.80;;;;;;;;;;5486067;22;20057;-66
2021/04/04 06:32:56;;;;;;;4.55;3.03;;;;;;;;;;5034366;28;20581;-67
2021/04/04 06:35:25;;;;;;;8.73;4.68;;;;;;;;;;5051760;28;20485;-66
2021/04/04 06:38:00;;;;;;;5.53;3.50;;;;;;;;;;5052254;28;20023;-66
2021/04/04 06:40:35;;;;;;;5.30;2.70;;;;;;;;;;5052406;28;20017;-66
2021/04/04 06:43:07;;;;;;;4.65;3.20;;;;;;;;;;5052071;28;20100;-67
2021/04/04 06:45:42;;;;;;;5.00;3.10;;;;;;;;;;5052546;28;20021;-66
2021/04/04 06:48:11;;;;;;;5.32;2.67;;;;;;;;;;5052214;28;20050;-67
2021/04/04 06:50:38;;;;;;;5.75;3.30;;;;;;;;;;5051965;28;20025;-66
2021/04/04 06:53:13;;;;;;;4.00;2.40;;;;;;;;;;5035056;28;20048;-67
2021/04/04 06:55:48;;;;;;;4.97;2.95;;;;;;;;;;5056205;28;20409;-67
2021/04/04 06:58:14;;;;;;;3.40;2.58;;;;;;;;;;5038363;28;20401;-66
2021/04/04 07:00:41;;;;;;;4.45;2.42;;;;;;;;;;5055910;28;20021;-66
2021/04/04 07:03:08;;;;;;;6.07;2.30;;;;;;;;;;5056106;28;20130;-66
2021/04/04 07:05:37;;;;;;;6.07;3.13;;;;;;;;;;5021134;28;20029;-67
2021/04/04 07:08:12;;;;;;;6.00;3.08;;;;;;;;;;5055732;28;20017;-67
2021/04/04 07:10:41;;;;;;;4.88;2.90;;;;;;;;;;5037825;28;20127;-67
2021/04/04 07:13:06;;;;;;;4.83;2.67;;;;;;;;;;5055899;28;20468;-66
2021/04/04 07:15:32;;;;;;;4.53;2.90;;;;;;;;;;5056956;28;20258;-67
2021/04/04 07:17:57;;;;;;;4.10;2.47;;;;;;;;;;5038259;28;20009;-67
2021/04/04 07:20:32;;;;;;;3.55;2.60;;;;;;;;;;5038136;28;20021;-67
2021/04/04 07:23:07;;;;;;;4.75;2.67;;;;;;;;;;5037793;28;20025;-67
2021/04/04 07:25:35;;;;;;;4.75;2.35;;;;;;;;;;5055820;28;20021;-66
2021/04/04 07:44:42;;;;;;;5.93;2.45;;;;;;;;;;4414148;22;20416;-66
2021/04/04 07:47:17;;;;;;;5.07;2.40;;;;;;;;;;5075283;28;20017;-67
2021/04/04 07:49:45;;;;;;;4.47;2.45;;;;;;;;;;5057377;28;20040;-66
2021/04/04 07:52:16;;;;;;;3.25;2.50;;;;;;;;;;5074955;28;20027;-66
2021/04/04 07:54:51;;;;;;;6.38;2.58;;;;;;;;;;5040493;28;20020;-66
2021/04/04 07:57:19;;;;;;;4.05;2.40;;;;;;;;;;5075040;28;20020;-67
2021/04/04 07:59:45;;;;;;;3.63;2.25;;;;;;;;;;5057509;28;20017;-66
2021/04/04 08:02:20;;;;;;;4.18;2.42;;;;;;;;;;5040486;28;20031;-67
2021/04/04 08:04:48;;;;;;;3.95;2.38;;;;;;;;;;5054918;28;20120;-66
2021/04/04 08:07:25;;;;;;;4.00;2.70;;;;;;;;;;5074970;28;20074;-67
2021/04/04 08:09:57;;;;;;;5.03;2.72;;;;;;;;;;5074913;28;20043;-66
2021/04/04 08:12:29;;;;;;;4.55;2.15;;;;;;;;;;5040353;28;20012;-67
2021/04/04 08:15:01;;;;;;;3.67;2.58;;;;;;;;;;5074905;28;20009;-67
2021/04/04 08:17:27;;;;;;;5.45;2.78;;;;;;;;;;5075186;28;20016;-67
2021/04/04 08:20:12;;;;;;;4.38;2.00;;;;;;;;;;5074874;28;20484;-67
2021/04/04 08:22:38;;;;;;;5.50;2.15;;;;;;;;;;5059582;28;20017;-67
2021/04/04 08:25:05;;;;;;;4.00;2.67;;;;;;;;;;5074643;28;20021;-66
2021/04/04 08:27:40;;;;;;;3.95;2.50;;;;;;;;;;5255428;23;20021;-66
2021/04/04 08:30:10;;;;;;;5.50;2.42;;;;;;;;;;5074447;28;20032;-66
2021/04/04 08:32:45;;;;;;;4.03;2.42;;;;;;;;;;5056668;28;20020;-67
2021/04/04 08:35:13;;;;;;;6.22;2.58;;;;;;;;;;5055738;28;20020;-67
2021/04/04 08:37:41;;;;;;;4.57;2.90;;;;;;;;;;5056463;28;20028;-67
2021/04/04 08:40:11;;;;;;;3.30;2.20;;;;;;;;;;5056100;28;20012;-67
2021/04/04 08:42:37;;;;;;;4.15;2.70;;;;;;;;;;5074333;28;20036;-67
2021/04/04 08:45:07;;;;;;;3.60;2.13;;;;;;;;;;5056188;28;20024;-67
2021/04/04 08:47:33;;;;;;;5.47;2.88;;;;;;;;;;5074141;28;20027;-67
2021/04/04 08:50:00;;;;;;;3.67;2.35;;;;;;;;;;5074073;28;20029;-66
2021/04/04 08:52:29;;;;;;;5.05;2.88;;;;;;;;;;5074229;28;20012;-67
2021/04/04 08:54:55;;;;;;;4.68;2.03;;;;;;;;;;5056296;28;20024;-67
2021/04/04 08:57:26;;;;;;;4.28;2.08;;;;;;;;;;5056036;28;20025;-67
2021/04/04 08:59:54;;;;;;;3.20;2.20;;;;;;;;;;5039487;28;20008;-67
2021/04/04 09:02:19;;;;;;;3.95;2.10;;;;;;;;;;5056334;28;20083;-67
2021/04/04 09:04:45;;;;;;;4.03;2.05;;;;;;;;;;5038607;28;20040;-67
2021/04/04 09:07:11;;;;;;;3.80;2.15;;;;;;;;;;5038967;28;20036;-67
2021/04/04 09:09:37;;;;;;;4.80;2.38;;;;;;;;;;5073862;28;20036;-67
2021/04/04 09:12:04;;;;;;;5.47;2.60;;;;;;;;;;5073546;28;20546;-67
2021/04/04 09:14:39;;;;;;;4.55;2.35;;;;;;;;;;5039026;28;20473;-67
2021/04/04 09:17:06;;;;;;;3.50;2.00;;;;;;;;;;5055411;28;20074;-67
2021/04/04 09:19:32;;;;;;;4.78;2.22;;;;;;;;;;5073691;28;20055;-68
2021/04/04 09:21:59;;;;;;;5.93;2.28;;;;;;;;;;5056134;28;20016;-66
2021/04/04 09:24:26;;;;;;;6.70;2.88;;;;;;;;;;5055865;28;20091;-67
2021/04/04 09:26:53;;;;;;;3.33;2.00;;;;;;;;;;5073165;28;20023;-67
2021/04/04 09:29:20;;;;;;;3.50;2.25;;;;;;;;;;5055380;28;20493;-67
2021/04/04 09:31:49;;;;;;;2.55;1.88;;;;;;;;;;5055618;28;20036;-67
2021/04/04 09:34:16;;;;;;;4.07;2.20;;;;;;;;;;5072913;28;20020;-67
2021/04/04 09:36:42;;;;;;;3.70;2.33;;;;;;;;;;5055318;28;20023;-67
2021/04/04 09:39:09;;;;;;;4.65;2.25;;;;;;;;;;5055287;28;20020;-67
2021/04/04 09:41:35;;;;;;;4.47;2.35;;;;;;;;;;5073417;28;20016;-67
2021/04/04 09:44:02;;;;;;;4.05;2.53;;;;;;;;;;5072995;28;20016;-66
2021/04/04 09:46:28;;;;;;;5.28;2.65;;;;;;;;;;5055263;28;20083;-67
2021/04/04 09:48:53;;;;;;;3.28;2.30;;;;;;;;;;5072715;28;20021;-67
2021/04/04 09:51:18;;;;;;;4.10;2.03;;;;;;;;;;5054934;28;20381;-67
2021/04/04 09:53:47;;;;;;;3.33;2.20;;;;;;;;;;5073088;28;20008;-67
2021/04/04 09:56:14;;;;;;;3.10;2.33;;;;;;;;;;5072987;28;20020;-67
2021/04/04 09:58:42;;;;;;;4.60;2.35;;;;;;;;;;5072671;28;20040;-67
2021/04/04 10:01:17;;;;;;;4.13;2.20;;;;;;;;;;5054759;28;20385;-67
2021/04/04 10:03:53;;;;;;;3.08;2.20;;;;;;;;;;5072631;28;20035;-67
2021/04/04 10:06:18;;;;;;;4.32;2.08;;;;;;;;;;5047383;28;20028;-67
2021/04/04 10:08:53;;;;;;;6.32;1.98;;;;;;;;;;5072380;28;20042;-67
2021/04/04 10:11:19;;;;;;;2.97;2.05;;;;;;;;;;5072659;28;20013;-67
2021/04/04 10:13:44;;;;;;;2.60;1.75;;;;;;;;;;5072709;28;20441;-67
2021/04/04 10:16:19;;;;;;;3.67;1.70;;;;;;;;;;5072318;28;20051;-67
2021/04/04 10:18:54;;;;;;;3.22;1.48;;;;;;;;;;5072479;28;20103;-67
2021/04/04 10:21:19;;;;;;;4.65;2.10;;;;;;;;;;5054588;28;20023;-67
2021/04/04 10:23:45;;;;;;;5.13;2.40;;;;;;;;;;5072615;28;20537;-67
2021/04/04 10:26:11;;;;;;;2.70;1.85;;;;;;;;;;5054639;28;20024;-67
2021/04/04 10:28:44;;;;;;;3.30;2.08;;;;;;;;;;5071351;28;20401;-67
2021/04/04 10:31:11;;;;;;;2.95;2.10;;;;;;;;;;5054664;28;20386;-67
2021/04/04 10:33:37;;;;;;;2.63;1.80;;;;;;;;;;5072542;28;20023;-67
2021/04/04 10:36:12;;;;;;;2.95;2.08;;;;;;;;;;5071766;28;20020;-67
2021/04/04 10:38:37;;;;;;;5.25;2.03;;;;;;;;;;5072278;28;20473;-67
2021/04/04 10:41:03;;;;;;;5.10;2.22;;;;;;;;;;5072054;28;20036;-67
2021/04/04 10:43:38;;;;;;;4.30;2.38;;;;;;;;;;5054529;28;20024;-67
2021/04/04 10:46:06;;;;;;;3.00;1.90;;;;;;;;;;5054482;28;20047;-67
2021/04/04 10:48:33;;;;;;;3.15;1.90;;;;;;;;;;5072101;28;20012;-67
2021/04/04 10:50:59;;;;;;;5.30;2.13;;;;;;;;;;5072083;28;20043;-67
2021/04/04 10:53:25;;;;;;;3.28;1.90;;;;;;;;;;5072466;28;20482;-67
2021/04/04 10:55:51;;;;;;;3.78;2.17;;;;;;;;;;5072255;28;20020;-67
2021/04/04 10:58:20;;;;;;;5.93;2.38;;;;;;;;;;5054280;28;20024;-67
2021/04/04 11:00:46;;;;;;;4.32;2.08;;;;;;;;;;5054632;28;20585;-67
2021/04/04 11:03:11;;;;;;;6.70;2.40;;;;;;;;;;5054104;28;20024;-67
2021/04/04 11:05:37;;;;;;;3.70;2.30;;;;;;;;;;5036874;28;20021;-67
2021/04/04 11:08:03;;;;;;;2.60;2.10;;;;;;;;;;5054032;28;20029;-67
2021/04/04 11:10:28;;;;;;;4.60;1.85;;;;;;;;;;5071818;28;20108;-67
2021/04/04 11:12:54;;;;;;;3.05;2.00;;;;;;;;;;5053988;28;20546;-67
2021/04/04 11:15:20;;;;;;;3.85;2.03;;;;;;;;;;5053949;28;20032;-67
2021/04/04 11:17:47;;;;;;;4.65;2.28;;;;;;;;;;5054287;28;20054;-67
2021/04/04 11:20:16;;;;;;;2.72;2.00;;;;;;;;;;5071997;28;20111;-67
2021/04/04 11:22:41;;;;;;;3.85;2.25;;;;;;;;;;5071839;28;20016;-67
2021/04/04 11:25:09;;;;;;;4.05;1.90;;;;;;;;;;5053974;28;20499;-67
2021/04/04 11:27:35;;;;;;;4.70;2.25;;;;;;;;;;5096860;22;20144;-67
2021/04/04 11:30:01;;;;;;;6.57;1.90;;;;;;;;;;5054266;28;20036;-66
2021/04/04 11:32:26;;;;;;;6.05;2.17;;;;;;;;;;5072031;28;20028;-67
2021/04/04 11:35:01;;;;;;;3.67;1.75;;;;;;;;;;5070946;28;20095;-67
2021/04/04 11:37:26;;;;;;;3.13;1.73;;;;;;;;;;5037248;28;20469;-67
2021/04/04 11:40:01;;;;;;;2.67;1.83;;;;;;;;;;5073464;28;20033;-67
2021/04/04 11:42:26;;;;;;;2.95;1.88;;;;;;;;;;5075593;28;20496;-67
2021/04/04 11:44:52;;;;;;;2.45;1.50;;;;;;;;;;5075231;28;20024;-67
2021/04/04 11:47:17;;;;;;;5.18;2.00;;;;;;;;;;5057262;28;20024;-67
2021/04/04 11:49:48;;;;;;;4.55;2.00;;;;;;;;;;5075451;28;20036;-67
2021/04/04 11:52:16;;;;;;;6.25;2.10;;;;;;;;;;5075269;28;20016;-67
2021/04/04 11:54:46;;;;;;;3.30;1.83;;;;;;;;;;5075145;28;20021;-67
2021/04/04 11:57:12;;;;;;;4.47;2.20;;;;;;;;;;5075157;28;20016;-67
2021/04/04 11:59:38;;;;;;;3.92;1.77;;;;;;;;;;5057598;28;20034;-67
2021/04/04 12:02:03;;;;;;;4.20;1.90;;;;;;;;;;5057347;28;20008;-67
2021/04/04 12:04:33;;;;;;;4.82;1.85;;;;;;;;;;5056919;28;20087;-67
2021/04/04 12:07:02;;;;;;;4.20;2.15;;;;;;;;;;5057634;28;20139;-67
2021/04/04 12:09:28;;;;;;;4.53;2.00;;;;;;;;;;5057068;28;20055;-67
2021/04/04 12:11:53;;;;;;;5.70;2.13;;;;;;;;;;5075026;28;20540;-67
2021/04/04 12:14:18;;;;;;;2.92;2.00;;;;;;;;;;5056903;28;20016;-67
2021/04/04 12:16:48;;;;;;;3.55;2.47;;;;;;;;;;5040291;28;20028;-67
2021/04/04 12:19:23;;;;;;;3.38;1.83;;;;;;;;;;5074730;28;20470;-67
2021/04/04 12:21:49;;;;;;;5.25;1.80;;;;;;;;;;5074932;28;20020;-67
2021/04/04 12:24:15;;;;;;;3.67;2.42;;;;;;;;;;5074639;28;20020;-67
2021/04/04 12:29:15;;;;;;;4.95;2.10;;;;;;;;;;4922692;26;20054;-67
2021/04/04 12:31:41;;;;;;;3.97;2.28;;;;;;;;;;5076798;28;20016;-67
2021/04/04 12:34:07;;;;;;;3.70;2.20;;;;;;;;;;5094544;28;20023;-68
2021/04/04 12:36:42;;;;;;;5.45;2.70;;;;;;;;;;5058983;28;20064;-66
2021/04/04 12:39:07;;;;;;;3.22;2.50;;;;;;;;;;5094705;28;20053;-67
2021/04/04 12:41:33;;;;;;;3.95;2.47;;;;;;;;;;5094599;28;20020;-67
2021/04/04 12:43:58;;;;;;;4.55;2.40;;;;;;;;;;5094552;28;20104;-67
2021/04/04 12:46:29;;;;;;;5.25;2.33;;;;;;;;;;5094632;28;20020;-67
2021/04/04 12:48:55;;;;;;;3.28;1.90;;;;;;;;;;5076192;28;20027;-67
2021/04/04 12:51:20;;;;;;;4.07;2.10;;;;;;;;;;5093647;28;20020;-67
2021/04/04 12:53:47;;;;;;;3.33;2.10;;;;;;;;;;5076391;28;20023;-67
2021/04/04 12:56:12;;;;;;;3.53;2.30;;;;;;;;;;5076022;28;20043;-67
2021/04/04 12:58:37;;;;;;;5.57;2.47;;;;;;;;;;5076017;28;20109;-66
2021/04/04 13:01:04;;;;;;;4.93;2.25;;;;;;;;;;5076075;28;20028;-67
2021/04/04 13:03:31;;;;;;;3.40;2.33;;;;;;;;;;5059299;28;20028;-67
2021/04/04 13:05:57;;;;;;;6.45;2.53;;;;;;;;;;5093628;28;20488;-67
2021/04/04 13:08:26;;;;;;;6.25;2.35;;;;;;;;;;5059162;28;20031;-67
2021/04/04 13:10:51;;;;;;;;;;;;;;;;;;5076412;28;20115;-67
2021/04/04 13:13:18;;;;;;;3.25;2.05;;;;;;;;;;5093965;28;19955;-67
2021/04/04 13:15:44;;;;;;;3.97;2.47;;;;;;;;;;5075934;28;20047;-67
2021/04/04 13:18:19;;;;;;;3.03;1.90;;;;;;;;;;5075716;28;20096;-67
2021/04/04 13:20:44;;;;;;;2.72;1.90;;;;;;;;;;5093663;28;20015;-67
2021/04/04 13:23:09;;;;;;;3.72;1.92;;;;;;;;;;5093607;28;20499;-67
2021/04/04 13:25:35;;;;;;;4.00;2.75;;;;;;;;;;5059114;28;20057;-67
2021/04/04 13:28:00;;;;;;;2.05;1.60;;;;;;;;;;5058634;28;20055;-67
2021/04/04 13:30:27;;;;;;;2.45;1.67;;;;;;;;;;5093515;28;20036;-67
2021/04/04 13:32:53;;;;;;;2.70;1.92;;;;;;;;;;5093302;28;20020;-67
2021/04/04 13:35:28;;;;;;;2.00;1.70;;;;;;;;;;5058420;28;20471;-67
2021/04/04 13:37:53;;;;;;;4.07;2.00;;;;;;;;;;5094106;28;20012;-67
2021/04/04 13:40:19;;;;;;;3.33;1.98;;;;;;;;;;5075322;28;20016;-67
2021/04/04 13:42:46;;;;;;;3.83;2.72;;;;;;;;;;5075391;28;20024;-67
2021/04/04 13:45:32;;;;;;;3.95;2.30;;;;;;;;;;5075214;28;20012;-68
2021/04/04 13:47:57;;;;;;;2.65;1.60;;;;;;;;;;5078159;28;20028;-67
2021/04/04 13:50:22;;;;;;;3.15;1.92;;;;;;;;;;5074919;28;20024;-67
2021/04/04 13:52:48;;;;;;;4.50;2.05;;;;;;;;;;5093183;28;20107;-67
2021/04/04 13:55:24;;;;;;;2.05;1.50;;;;;;;;;;5074950;28;20016;-67
2021/04/04 13:57:50;;;;;;;2.70;2.03;;;;;;;;;;5074955;28;20031;-67
2021/04/04 14:00:16;;;;;;;6.22;1.90;;;;;;;;;;5075013;28;20024;-67
2021/04/04 14:02:41;;;;;;;2.92;1.85;;;;;;;;;;5092383;28;20086;-67
2021/04/04 14:05:23;;;;;;;4.70;1.95;;;;;;;;;;5092323;28;20016;-67
2021/04/04 14:07:49;;;;;;;2.88;1.48;;;;;;;;;;5058191;28;20484;-67
2021/04/04 14:10:14;;;;;;;2.55;1.70;;;;;;;;;;5092714;28;20027;-67
2021/04/04 14:12:40;;;;;;;4.68;2.03;;;;;;;;;;5074521;28;20019;-67
2021/04/04 14:15:05;;;;;;;3.85;2.10;;;;;;;;;;5092812;28;20020;-66
2021/04/04 14:17:31;;;;;;;4.45;1.73;;;;;;;;;;5074759;28;20048;-67
2021/04/04 14:19:56;;;;;;;2.40;1.45;;;;;;;;;;5057995;28;20019;-67
2021/04/04 14:22:21;;;;;;;2.70;1.40;;;;;;;;;;5074594;28;20115;-67
2021/04/04 14:24:47;;;;;;;2.53;1.67;;;;;;;;;;5092577;28;20061;-67
2021/04/04 14:27:12;;;;;;;3.17;1.98;;;;;;;;;;5092110;28;20020;-67
2021/04/04 14:29:38;;;;;;;3.47;1.80;;;;;;;;;;5074759;28;20131;-67
2021/04/04 14:32:04;;;;;;;4.68;1.70;;;;;;;;;;5092753;28;20388;-67
2021/04/04 14:34:30;;;;;;;2.03;1.42;;;;;;;;;;5073547;28;20027;-67
2021/04/04 14:36:56;;;;;;;5.18;1.83;;;;;;;;;;5092555;28;20480;-67
2021/04/04 14:39:23;;;;;;;2.97;2.00;;;;;;;;;;5092493;28;20099;-67
2021/04/04 14:41:49;;;;;;;2.63;1.73;;;;;;;;;;5092572;28;20012;-67
2021/04/04 14:46:45;;;;;;;2.40;1.58;;;;;;;;;;5092436;28;20103;-67
2021/04/04 14:49:11;;;;;;;2.83;1.70;;;;;;;;;;5057542;28;20027;-66
2021/04/04 14:51:37;;;;;;;3.50;2.03;;;;;;;;;;5092453;28;20430;-66
2021/04/04 14:54:02;;;;;;;3.15;1.90;;;;;;;;;;5074341;28;20051;-66
2021/04/04 14:56:27;;;;;;;2.83;1.75;;;;;;;;;;5074303;28;20027;-66
2021/04/04 14:58:53;;;;;;;4.05;2.10;;;;;;;;;;5092219;28;20023;-66
2021/04/04 15:01:18;;;;;;;3.28;1.67;;;;;;;;;;5092270;28;20024;-66
2021/04/04 15:03:44;;;;;;;2.38;1.90;;;;;;;;;;5092359;28;20012;-66
2021/04/04 15:06:09;;;;;;;2.50;1.92;;;;;;;;;;5091642;28;20020;-67
2021/04/04 15:08:36;;;;;;;2.33;1.88;;;;;;;;;;5074199;28;20140;-67
2021/04/04 15:11:02;;;;;;;3.08;1.85;;;;;;;;;;5073966;28;20024;-66
2021/04/04 15:13:28;;;;;;;3.22;1.95;;;;;;;;;;5074374;28;20464;-67
2021/04/04 15:15:53;;;;;;;3.72;1.73;;;;;;;;;;5095899;28;20046;-67
2021/04/04 15:18:19;;;;;;;4.30;1.70;;;;;;;;;;5096109;28;20019;-67
2021/04/04 15:20:45;;;;;;;2.38;1.98;;;;;;;;;;5077742;28;20022;-67
2021/04/04 15:23:10;;;;;;;4.43;2.00;;;;;;;;;;5096021;28;20103;-67
2021/04/04 15:25:36;;;;;;;4.22;2.20;;;;;;;;;;5077874;28;20023;-67
2021/04/04 15:28:02;;;;;;;3.97;2.13;;;;;;;;;;5095670;28;20039;-67
2021/04/04 15:30:29;;;;;;;3.92;2.30;;;;;;;;;;5077994;28;20024;-66
2021/04/04 15:32:54;;;;;;;3.72;1.77;;;;;;;;;;5077899;28;20012;-66